createdAt,value
2019-01-27T00:01:57.083Z,5.30
2019-01-27T00:04:46.636Z,5.30
2019-01-27T00:07:34.647Z,4.80
2019-01-27T00:10:04.517Z,5.30
2019-01-27T00:12:33.223Z,5.40
2019-01-27T00:15:01.954Z,5.40
2019-01-27T00:17:30.799Z,5.50
2019-01-27T00:20:00.192Z,5.50
2019-01-27T00:22:28.934Z,5.50
2019-01-27T00:24:57.572Z,5.50
2019-01-27T00:27:26.239Z,5.50
2019-01-27T00:29:54.943Z,5.50
2019-01-27T00:32:23.791Z,5.50
2019-01-27T00:34:52.452Z,5.40
2019-01-27T00:37:21.126Z,4.80
2019-01-27T00:39:49.880Z,5.50
2019-01-27T00:42:18.666Z,5.50
2019-01-27T00:44:47.514Z,5.50
2019-01-27T00:47:16.122Z,5.50
2019-01-27T00:49:45.002Z,5.60
2019-01-27T00:52:13.730Z,5.60
2019-01-27T00:54:42.433Z,5.70
2019-01-27T00:57:11.101Z,5.70
2019-01-27T00:59:39.733Z,5.70
2019-01-27T01:02:08.554Z,5.80
2019-01-27T01:04:37.278Z,5.80
2019-01-27T01:07:06.039Z,5.80
2019-01-27T01:09:34.656Z,5.80
2019-01-27T01:12:03.456Z,5.80
2019-01-27T01:14:32.136Z,5.90
2019-01-27T01:17:00.993Z,6.00
2019-01-27T01:19:29.625Z,6.00
2019-01-27T01:21:58.314Z,6.00
2019-01-27T01:24:27.111Z,6.10
2019-01-27T01:26:55.823Z,6.10
2019-01-27T01:29:24.499Z,6.10
2019-01-27T01:31:53.154Z,6.10
2019-01-27T01:34:21.893Z,6.10
2019-01-27T01:36:50.602Z,6.10
2019-01-27T01:39:19.406Z,6.10
2019-01-27T01:41:48.105Z,6.00
2019-01-27T01:44:16.734Z,5.90
2019-01-27T01:46:45.500Z,5.90
2019-01-27T01:49:14.112Z,5.80
2019-01-27T01:51:42.886Z,5.80
2019-01-27T01:54:11.482Z,5.80
2019-01-27T01:56:40.114Z,5.70
2019-01-27T01:59:08.712Z,5.70
2019-01-27T02:01:37.599Z,5.60
2019-01-27T02:04:06.399Z,5.60
2019-01-27T02:06:35.279Z,5.60
2019-01-27T02:09:07.123Z,5.60
2019-01-27T02:11:35.816Z,5.50
2019-01-27T02:14:05.186Z,5.50
2019-01-27T02:16:35.509Z,5.50
2019-01-27T02:19:04.501Z,5.50
2019-01-27T02:21:33.964Z,5.50
2019-01-27T02:24:02.657Z,5.50
2019-01-27T02:26:31.274Z,5.50
2019-01-27T02:28:59.977Z,5.40
2019-01-27T02:31:28.578Z,5.40
2019-01-27T02:33:57.226Z,5.40
2019-01-27T02:36:25.820Z,5.40
2019-01-27T02:38:54.442Z,5.50
2019-01-27T02:41:23.111Z,5.40
2019-01-27T02:43:51.747Z,5.40
2019-01-27T02:46:20.616Z,5.40
2019-01-27T02:48:49.435Z,5.40
2019-01-27T02:51:18.222Z,5.40
2019-01-27T02:53:46.846Z,5.30
2019-01-27T02:56:15.454Z,5.30
2019-01-27T02:58:44.159Z,5.30
2019-01-27T03:01:12.958Z,5.30
2019-01-27T03:03:41.630Z,5.30
2019-01-27T03:06:11.998Z,5.30
2019-01-27T03:08:42.379Z,5.40
2019-01-27T03:11:11.175Z,5.30
2019-01-27T03:13:42.498Z,5.40
2019-01-27T03:16:12.319Z,5.40
2019-01-27T03:18:41.227Z,5.40
2019-01-27T03:21:09.976Z,5.40
2019-01-27T03:23:38.638Z,5.30
2019-01-27T03:26:07.273Z,5.40
2019-01-27T03:28:35.961Z,5.30
2019-01-27T03:31:04.735Z,5.40
2019-01-27T03:33:33.407Z,5.40
2019-01-27T03:36:02.086Z,5.50
2019-01-27T03:38:30.869Z,5.50
2019-01-27T03:40:59.553Z,5.50
2019-01-27T03:43:28.245Z,5.50
2019-01-27T03:45:57.039Z,5.60
2019-01-27T03:48:25.737Z,5.60
2019-01-27T03:50:54.343Z,5.60
2019-01-27T03:53:23.059Z,5.60
2019-01-27T03:55:51.865Z,5.60
2019-01-27T03:58:20.475Z,5.60
2019-01-27T04:00:49.336Z,5.60
2019-01-27T04:03:18.050Z,5.60
2019-01-27T04:05:46.723Z,5.60
2019-01-27T04:08:17.056Z,5.60
2019-01-27T04:10:45.664Z,5.70
2019-01-27T04:13:14.397Z,5.70
2019-01-27T04:15:43.285Z,5.70
2019-01-27T04:18:11.987Z,5.70
2019-01-27T04:20:40.778Z,5.70
2019-01-27T04:23:09.484Z,5.60
2019-01-27T04:25:40.140Z,5.70
2019-01-27T04:28:08.940Z,5.70
2019-01-27T04:30:37.877Z,5.80
2019-01-27T04:33:06.568Z,5.80
2019-01-27T04:35:35.336Z,5.80
2019-01-27T04:38:04.122Z,5.80
2019-01-27T04:40:32.909Z,5.80
2019-01-27T04:43:01.686Z,5.80
2019-01-27T04:45:32.307Z,5.80
2019-01-27T04:48:03.567Z,5.70
2019-01-27T04:50:32.369Z,5.70
2019-01-27T04:53:01.052Z,5.70
2019-01-27T04:55:29.788Z,5.80
2019-01-27T04:57:58.411Z,5.80
2019-01-27T05:00:27.382Z,5.80
2019-01-27T05:03:03.689Z,5.80
2019-01-27T05:05:32.464Z,5.80
2019-01-27T05:08:01.078Z,5.80
2019-01-27T05:10:29.794Z,5.80
2019-01-27T05:12:58.414Z,5.80
2019-01-27T05:15:28.755Z,5.80
2019-01-27T05:17:57.357Z,5.70
2019-01-27T05:20:25.990Z,5.60
2019-01-27T05:22:54.710Z,5.60
2019-01-27T05:25:23.378Z,5.50
2019-01-27T05:27:52.060Z,5.50
2019-01-27T05:30:22.202Z,5.50
2019-01-27T05:32:51.019Z,5.50
2019-01-27T05:35:19.895Z,5.60
2019-01-27T05:37:48.672Z,5.60
2019-01-27T05:40:17.912Z,5.60
2019-01-27T05:42:46.610Z,5.60
2019-01-27T05:45:16.050Z,5.60
2019-01-27T05:47:44.759Z,5.70
2019-01-27T05:50:14.537Z,5.70
2019-01-27T05:52:43.257Z,5.70
2019-01-27T05:55:13.241Z,5.70
2019-01-27T05:57:41.936Z,5.60
2019-01-27T06:00:42.786Z,5.60
2019-01-27T06:03:11.502Z,5.60
2019-01-27T06:05:40.187Z,5.60
2019-01-27T06:08:08.910Z,5.60
2019-01-27T06:10:37.581Z,5.50
2019-01-27T06:13:06.303Z,5.50
2019-01-27T06:15:35.042Z,5.50
2019-01-27T06:18:03.839Z,5.50
2019-01-27T06:20:32.671Z,5.40
2019-01-27T06:23:01.627Z,5.40
2019-01-27T06:25:30.582Z,5.30
2019-01-27T06:27:59.451Z,5.30
2019-01-27T06:30:28.421Z,5.30
2019-01-27T06:33:04.990Z,5.20
2019-01-27T06:35:34.666Z,5.20
2019-01-27T06:38:03.443Z,5.30
2019-01-27T06:40:32.185Z,5.30
2019-01-27T06:43:00.962Z,5.20
2019-01-27T06:45:29.594Z,5.30
2019-01-27T06:47:58.266Z,5.30
2019-01-27T06:50:26.903Z,5.30
2019-01-27T06:52:55.654Z,5.30
2019-01-27T06:55:24.426Z,5.30
2019-01-27T06:57:53.051Z,5.30
2019-01-27T07:00:24.407Z,5.40
2019-01-27T07:02:54.854Z,5.40
2019-01-27T07:05:28.126Z,5.40
2019-01-27T07:07:58.386Z,5.50
2019-01-27T07:10:40.622Z,5.50
2019-01-27T07:13:11.074Z,5.50
2019-01-27T07:15:41.491Z,5.50
2019-01-27T07:18:21.192Z,5.50
2019-01-27T07:21:08.022Z,5.50
2019-01-27T07:23:40.823Z,5.50
2019-01-27T07:26:16.780Z,5.50
2019-01-27T07:28:49.660Z,5.50
2019-01-27T07:31:28.754Z,5.50
2019-01-27T07:34:15.079Z,5.50
2019-01-27T07:36:57.209Z,5.40
2019-01-27T07:39:27.587Z,5.40
2019-01-27T07:42:00.488Z,5.40
2019-01-27T07:44:30.870Z,5.40
2019-01-27T07:47:03.855Z,5.40
2019-01-27T07:49:34.296Z,5.40
2019-01-27T07:52:16.618Z,5.40
2019-01-27T07:54:47.050Z,5.30
2019-01-27T07:57:23.079Z,5.40
2019-01-27T07:59:53.391Z,5.30
2019-01-27T08:02:39.858Z,5.30
2019-01-27T08:05:11.359Z,5.30
2019-01-27T08:07:44.518Z,5.30
2019-01-27T08:10:29.574Z,5.20
2019-01-27T08:13:02.775Z,5.20
2019-01-27T08:15:35.924Z,5.20
2019-01-27T08:18:06.255Z,5.30
2019-01-27T08:20:41.961Z,5.30
2019-01-27T08:23:15.005Z,5.40
2019-01-27T08:25:45.532Z,5.50
2019-01-27T08:28:15.882Z,5.50
2019-01-27T08:30:46.159Z,5.60
2019-01-27T08:33:16.513Z,5.60
2019-01-27T08:35:52.752Z,5.70
2019-01-27T08:38:23.119Z,5.70
2019-01-27T08:40:59.165Z,5.80
2019-01-27T08:43:29.484Z,6.00
2019-01-27T08:45:59.798Z,6.20
2019-01-27T08:48:28.468Z,6.20
2019-01-27T08:50:57.381Z,6.20
2019-01-27T08:53:26.278Z,6.20
2019-01-27T08:55:55.007Z,6.20
2019-01-27T08:58:23.864Z,6.30
2019-01-27T09:00:57.109Z,6.30
2019-01-27T09:03:33.037Z,6.30
2019-01-27T09:06:03.467Z,6.40
2019-01-27T09:08:33.715Z,6.40
2019-01-27T09:11:06.892Z,6.40
2019-01-27T09:13:37.143Z,6.40
2019-01-27T09:16:07.492Z,6.50
2019-01-27T09:18:37.793Z,6.50
2019-01-27T09:21:08.186Z,6.60
2019-01-27T09:23:43.995Z,6.70
2019-01-27T09:26:20.081Z,6.70
2019-01-27T09:28:53.106Z,6.80
2019-01-27T09:31:23.562Z,6.90
2019-01-27T09:33:59.776Z,7.00
2019-01-27T09:36:30.102Z,7.00
2019-01-27T09:39:16.460Z,7.10
2019-01-27T09:41:46.742Z,7.10
2019-01-27T09:44:33.250Z,7.20
2019-01-27T09:47:03.719Z,7.20
2019-01-27T09:49:35.467Z,7.20
2019-01-27T09:52:05.915Z,7.30
2019-01-27T09:54:51.100Z,7.20
2019-01-27T09:57:21.410Z,7.30
2019-01-27T09:59:51.675Z,7.30
2019-01-27T10:02:21.962Z,7.40
2019-01-27T10:04:58.118Z,7.40
2019-01-27T10:07:31.226Z,7.40
2019-01-27T10:10:18.399Z,7.30
2019-01-27T10:12:54.281Z,7.40
2019-01-27T10:15:27.387Z,7.40
2019-01-27T10:17:57.838Z,7.50
2019-01-27T10:20:36.905Z,7.60
2019-01-27T10:23:23.488Z,7.50
2019-01-27T10:26:03.015Z,7.60
2019-01-27T10:28:42.362Z,7.60
2019-01-27T10:31:27.822Z,7.50
2019-01-27T10:34:06.755Z,7.50
2019-01-27T10:36:43.247Z,7.50
2019-01-27T10:39:13.744Z,7.60
2019-01-27T10:41:50.005Z,7.70
2019-01-27T10:44:20.347Z,7.70
2019-01-27T10:46:50.620Z,7.60
2019-01-27T10:49:29.866Z,7.60
2019-01-27T10:52:00.144Z,7.50
2019-01-27T10:54:30.712Z,7.40
2019-01-27T10:57:01.053Z,7.30
2019-01-27T10:59:34.568Z,7.20
2019-01-27T11:02:16.998Z,7.10
2019-01-27T11:04:59.387Z,7.10
2019-01-27T11:07:32.440Z,7.10
2019-01-27T11:10:05.892Z,7.10
2019-01-27T11:12:39.118Z,7.10
2019-01-27T11:15:28.028Z,7.10
2019-01-27T11:18:00.950Z,7.20
2019-01-27T11:20:39.888Z,7.20
2019-01-27T11:23:11.814Z,7.20
2019-01-27T11:25:42.227Z,7.30
2019-01-27T11:28:21.443Z,7.30
2019-01-27T11:31:01.089Z,7.20
2019-01-27T11:33:40.258Z,7.20
2019-01-27T11:36:16.383Z,7.40
2019-01-27T11:38:58.696Z,7.50
2019-01-27T11:41:29.049Z,7.50
2019-01-27T11:44:11.814Z,7.40
2019-01-27T11:46:51.370Z,7.40
2019-01-27T11:49:21.698Z,7.40
2019-01-27T11:51:50.650Z,7.40
2019-01-27T11:54:19.308Z,7.40
2019-01-27T11:56:48.166Z,7.30
2019-01-27T11:59:17.166Z,7.20
2019-01-27T12:01:46.154Z,7.10
2019-01-27T12:04:14.981Z,7.10
2019-01-27T12:06:43.859Z,7.00
2019-01-27T12:09:12.839Z,6.90
2019-01-27T12:11:42.145Z,6.80
2019-01-27T12:14:10.998Z,6.70
2019-01-27T12:16:42.876Z,6.60
2019-01-27T12:19:11.656Z,6.60
2019-01-27T12:21:40.417Z,6.60
2019-01-27T12:24:09.207Z,6.50
2019-01-27T12:26:38.018Z,6.60
2019-01-27T12:29:06.982Z,6.60
2019-01-27T12:31:35.940Z,6.70
2019-01-27T12:34:05.050Z,6.70
2019-01-27T12:36:34.752Z,6.80
2019-01-27T12:39:05.554Z,6.80
2019-01-27T12:41:34.311Z,6.80
2019-01-27T12:44:03.071Z,6.80
2019-01-27T12:46:31.890Z,6.80
2019-01-27T12:49:00.584Z,6.80
2019-01-27T12:51:29.528Z,6.80
2019-01-27T12:53:58.346Z,6.80
2019-01-27T12:56:27.199Z,6.70
2019-01-27T12:58:56.184Z,6.80
2019-01-27T13:01:25.086Z,6.70
2019-01-27T13:03:53.902Z,6.60
2019-01-27T13:06:22.875Z,6.60
2019-01-27T13:08:51.478Z,6.60
2019-01-27T13:11:20.154Z,6.60
2019-01-27T13:13:48.862Z,6.50
2019-01-27T13:16:17.671Z,6.30
2019-01-27T13:18:46.419Z,6.30
2019-01-27T13:21:15.357Z,6.30
2019-01-27T13:23:44.141Z,6.10
2019-01-27T13:26:12.830Z,6.00
2019-01-27T13:28:41.544Z,5.90
2019-01-27T13:31:10.358Z,5.90
2019-01-27T13:33:39.249Z,6.00
2019-01-27T13:36:08.354Z,6.00
2019-01-27T13:45:48.091Z,5.90
2019-01-27T13:48:37.214Z,5.90
2019-01-27T13:51:26.087Z,5.90
2019-01-27T13:54:15.041Z,5.80
2019-01-27T13:57:05.567Z,5.80
2019-01-27T13:59:54.747Z,5.80
2019-01-27T14:02:45.372Z,5.80
2019-01-27T14:05:34.394Z,5.90
2019-01-27T14:08:23.333Z,5.90
2019-01-27T14:11:31.850Z,5.90
2019-01-27T14:14:14.731Z,6.00
2019-01-27T14:17:02.853Z,6.00
2019-01-27T14:19:50.828Z,6.10
2019-01-27T14:22:38.959Z,6.10
2019-01-27T14:25:26.982Z,6.10
2019-01-27T14:28:15.074Z,6.10
2019-01-27T14:31:04.930Z,6.10
2019-01-27T14:33:54.948Z,6.20
2019-01-27T14:37:02.523Z,6.20
2019-01-27T14:39:50.614Z,6.20
2019-01-27T14:42:38.803Z,6.20
2019-01-27T14:45:26.775Z,6.20
2019-01-27T14:48:14.800Z,6.20
2019-01-27T14:51:03.153Z,6.20
2019-01-27T14:53:51.111Z,6.20
2019-01-27T14:56:39.175Z,6.20
2019-01-27T14:59:27.382Z,6.20
2019-01-27T15:02:15.492Z,6.20
2019-01-27T15:05:03.647Z,6.20
2019-01-27T15:07:51.688Z,6.20
2019-01-27T15:10:39.994Z,6.20
2019-01-27T15:13:28.059Z,6.20
2019-01-27T15:16:09.884Z,6.10
2019-01-27T15:18:52.764Z,6.10
2019-01-27T15:21:41.847Z,6.00
2019-01-27T15:24:30.924Z,6.00
2019-01-27T15:27:19.922Z,6.00
2019-01-27T15:30:29.571Z,6.00
2019-01-27T15:33:18.726Z,6.00
2019-01-27T15:36:07.820Z,5.90
2019-01-27T15:38:56.824Z,5.90
2019-01-27T15:41:46.101Z,5.90
2019-01-27T15:44:35.161Z,5.90
2019-01-27T15:47:26.018Z,5.80
2019-01-27T15:50:35.751Z,5.80
2019-01-27T15:53:26.627Z,5.80
2019-01-27T15:56:15.510Z,5.70
2019-01-27T15:59:04.700Z,5.70
2019-01-27T16:01:53.836Z,5.70
2019-01-27T16:05:02.251Z,5.70
2019-01-27T16:07:51.723Z,5.60
2019-01-27T16:10:40.689Z,5.60
2019-01-27T16:13:29.923Z,5.50
2019-01-27T16:16:13.967Z,5.40
2019-01-27T16:19:02.938Z,5.40
2019-01-27T16:21:51.850Z,5.30
2019-01-27T16:24:41.067Z,5.20
2019-01-27T16:30:57.991Z,5.00
2019-01-27T16:34:06.637Z,5.00
2019-01-27T16:36:55.780Z,5.00
2019-01-27T16:39:44.855Z,4.90
2019-01-27T16:42:33.860Z,4.90
2019-01-27T16:45:22.937Z,4.70
2019-01-27T16:48:11.998Z,4.60
2019-01-27T16:50:41.750Z,4.50
2019-01-27T16:53:30.729Z,4.50
2019-01-27T16:59:22.304Z,4.40
2019-01-27T17:02:11.311Z,4.40
2019-01-27T17:05:00.593Z,4.40
2019-01-27T17:07:49.595Z,4.40
2019-01-27T17:10:39.037Z,4.40
2019-01-27T17:13:28.178Z,4.40
2019-01-27T17:16:10.795Z,4.40
2019-01-27T17:18:59.710Z,4.40
2019-01-27T17:21:48.755Z,4.30
2019-01-27T17:24:39.430Z,4.30
2019-01-27T17:27:30.011Z,4.30
2019-01-27T17:33:08.543Z,4.30
2019-01-27T17:35:57.497Z,4.30
2019-01-27T17:38:46.625Z,4.30
2019-01-27T17:44:38.078Z,4.30
2019-01-27T17:50:27.974Z,4.30
2019-01-27T17:53:17.264Z,4.30
2019-01-27T17:56:06.195Z,4.30
2019-01-27T18:11:17.986Z,4.30
2019-01-27T18:17:22.051Z,4.30
2019-01-27T18:20:18.643Z,4.30
2019-01-27T18:23:21.389Z,4.20
2019-01-27T18:26:17.771Z,4.20
2019-01-27T18:29:06.794Z,4.20
2019-01-27T18:31:57.586Z,4.20
2019-01-27T18:34:27.704Z,4.20
2019-01-27T18:37:16.978Z,4.20
2019-01-27T18:40:27.053Z,4.20
2019-01-27T18:43:16.469Z,4.20
2019-01-27T18:45:46.293Z,4.10
2019-01-27T18:48:35.494Z,4.10
2019-01-27T18:51:44.279Z,4.20
2019-01-27T18:58:48.364Z,4.00
2019-01-27T19:01:58.326Z,3.90
2019-01-27T19:05:06.693Z,3.80
2019-01-27T19:08:16.484Z,3.80
2019-01-27T19:11:25.009Z,3.80
2019-01-27T19:14:41.040Z,3.70
2019-01-27T19:17:29.786Z,3.70
2019-01-27T19:23:48.779Z,3.70
2019-01-27T19:26:57.041Z,3.70
2019-01-27T19:39:15.859Z,3.60
2019-01-27T19:42:24.088Z,3.60
2019-01-27T19:45:32.435Z,3.60
2019-01-27T19:48:40.553Z,3.60
2019-01-27T19:51:51.787Z,3.50
2019-01-27T19:55:01.484Z,3.50
2019-01-27T20:01:18.023Z,3.50
2019-01-27T20:04:26.306Z,3.50
2019-01-27T20:13:46.752Z,3.50
2019-01-27T20:29:27.254Z,3.40
2019-01-27T20:32:37.236Z,3.50
2019-01-27T20:35:42.500Z,3.50
2019-01-27T20:41:50.474Z,3.40
2019-01-27T20:48:12.559Z,3.30
2019-01-27T20:57:39.391Z,3.30
2019-01-27T21:06:50.961Z,3.40
2019-01-27T21:09:59.412Z,3.40
2019-01-27T21:16:14.630Z,3.40
2019-01-27T21:22:05.910Z,3.40
2019-01-27T21:25:15.725Z,3.40
2019-01-27T21:28:05.161Z,3.30
2019-01-27T21:34:29.053Z,3.20
2019-01-27T21:37:18.098Z,3.20
2019-01-27T21:40:27.762Z,3.20
2019-01-27T21:43:36.186Z,3.10
2019-01-27T21:46:27.062Z,3.20
2019-01-27T21:49:16.101Z,3.20
2019-01-27T21:55:26.280Z,3.20
2019-01-27T21:58:15.677Z,3.20
2019-01-27T22:04:33.833Z,3.20
2019-01-27T22:07:22.943Z,3.20
2019-01-27T22:10:11.152Z,3.20
2019-01-27T22:13:18.426Z,3.20
2019-01-27T22:16:00.017Z,3.20
2019-01-27T22:18:45.252Z,3.30
2019-01-27T22:21:26.649Z,3.20
2019-01-27T22:24:08.316Z,3.30
2019-01-27T22:26:49.896Z,3.30
2019-01-27T22:29:33.212Z,3.30
2019-01-27T22:32:14.916Z,3.40
2019-01-27T22:34:56.302Z,3.40
2019-01-27T22:37:40.583Z,3.40
2019-01-27T22:40:22.383Z,3.40
2019-01-27T22:43:03.619Z,3.40
2019-01-27T22:45:45.356Z,3.40
2019-01-27T22:48:27.258Z,3.50
2019-01-27T22:51:08.356Z,3.40
2019-01-27T22:53:51.132Z,3.40
2019-01-27T22:56:32.660Z,3.30
2019-01-27T22:59:14.360Z,3.30
2019-01-27T23:01:56.196Z,3.20
2019-01-27T23:04:40.760Z,3.20
2019-01-27T23:07:22.800Z,3.20
2019-01-27T23:10:04.637Z,3.20
2019-01-27T23:12:46.525Z,3.20
2019-01-27T23:15:26.161Z,3.20
2019-01-27T23:18:14.455Z,3.20
2019-01-27T23:21:02.457Z,3.20
2019-01-27T23:23:50.429Z,3.20
2019-01-27T23:26:40.046Z,3.30
2019-01-27T23:29:47.543Z,3.30
2019-01-27T23:32:35.645Z,3.30
2019-01-27T23:35:23.698Z,3.30
2019-01-27T23:38:13.351Z,3.30
2019-01-27T23:41:01.299Z,3.30
2019-01-27T23:44:08.835Z,3.30
2019-01-27T23:46:56.951Z,3.30
2019-01-27T23:49:45.050Z,3.40
2019-01-27T23:52:33.021Z,3.30
2019-01-27T23:55:54.973Z,3.30
2019-01-27T23:58:50.080Z,3.30
